sensor_id;sensor_type;location;lat;lon;timestamp;P1;durP1;ratioP1;P2;durP2;ratioP2
20505;SDS011;10411;48.148;7.704;2022-11-15T00:01:08;21.37;;;19.87;;
20505;SDS011;10411;48.148;7.704;2022-11-15T00:03:34;21.57;;;19.97;;
20505;SDS011;10411;48.148;7.704;2022-11-15T00:06:01;20.30;;;19.10;;
20505;SDS011;10411;48.148;7.704;2022-11-15T00:08:28;20.70;;;19.30;;
20505;SDS011;10411;48.148;7.704;2022-11-15T00:10:56;21.27;;;19.60;;
20505;SDS011;10411;48.148;7.704;2022-11-15T00:13:22;20.73;;;19.40;;
20505;SDS011;10411;48.148;7.704;2022-11-15T00:15:48;20.47;;;19.17;;
20505;SDS011;10411;48.148;7.704;2022-11-15T00:18:14;21.93;;;20.43;;
20505;SDS011;10411;48.148;7.704;2022-11-15T00:20:41;20.57;;;19.07;;
20505;SDS011;10411;48.148;7.704;2022-11-15T00:23:07;20.60;;;18.93;;
20505;SDS011;10411;48.148;7.704;2022-11-15T00:25:33;19.70;;;18.50;;
20505;SDS011;10411;48.148;7.704;2022-11-15T00:28:00;20.40;;;19.07;;
20505;SDS011;10411;48.148;7.704;2022-11-15T00:30:26;20.93;;;19.60;;
20505;SDS011;10411;48.148;7.704;2022-11-15T00:32:52;21.20;;;19.60;;
20505;SDS011;10411;48.148;7.704;2022-11-15T00:35:18;19.87;;;18.73;;
20505;SDS011;10411;48.148;7.704;2022-11-15T00:37:44;20.50;;;19.13;;
20505;SDS011;10411;48.148;7.704;2022-11-15T00:40:12;20.27;;;18.97;;
20505;SDS011;10411;48.148;7.704;2022-11-15T00:42:38;21.70;;;20.20;;
20505;SDS011;10411;48.148;7.704;2022-11-15T00:45:04;22.30;;;20.77;;
20505;SDS011;10411;48.148;7.704;2022-11-15T00:47:30;21.03;;;19.53;;
20505;SDS011;10411;48.148;7.704;2022-11-15T00:49:56;22.20;;;20.40;;
20505;SDS011;10411;48.148;7.704;2022-11-15T00:52:22;21.60;;;20.07;;
20505;SDS011;10411;48.148;7.704;2022-11-15T00:54:48;21.60;;;20.10;;
20505;SDS011;10411;48.148;7.704;2022-11-15T00:57:14;22.03;;;20.53;;
20505;SDS011;10411;48.148;7.704;2022-11-15T00:59:40;22.07;;;20.57;;
20505;SDS011;10411;48.148;7.704;2022-11-15T01:02:06;21.97;;;20.47;;
20505;SDS011;10411;48.148;7.704;2022-11-15T01:04:32;22.80;;;21.10;;
20505;SDS011;10411;48.148;7.704;2022-11-15T01:06:58;22.70;;;21.10;;
20505;SDS011;10411;48.148;7.704;2022-11-15T01:09:23;21.83;;;20.33;;
20505;SDS011;10411;48.148;7.704;2022-11-15T01:11:49;22.27;;;20.53;;
20505;SDS011;10411;48.148;7.704;2022-11-15T01:14:15;22.30;;;20.67;;
20505;SDS011;10411;48.148;7.704;2022-11-15T01:16:41;22.80;;;21.07;;
20505;SDS011;10411;48.148;7.704;2022-11-15T01:19:07;22.07;;;20.20;;
20505;SDS011;10411;48.148;7.704;2022-11-15T01:21:33;21.80;;;19.90;;
20505;SDS011;10411;48.148;7.704;2022-11-15T01:23:59;21.93;;;20.07;;
20505;SDS011;10411;48.148;7.704;2022-11-15T01:26:25;21.70;;;19.90;;
20505;SDS011;10411;48.148;7.704;2022-11-15T01:28:51;20.83;;;19.40;;
20505;SDS011;10411;48.148;7.704;2022-11-15T01:31:18;21.30;;;19.70;;
20505;SDS011;10411;48.148;7.704;2022-11-15T01:33:45;22.10;;;20.33;;
20505;SDS011;10411;48.148;7.704;2022-11-15T01:36:18;21.60;;;20.03;;
20505;SDS011;10411;48.148;7.704;2022-11-15T01:38:46;20.57;;;18.90;;
20505;SDS011;10411;48.148;7.704;2022-11-15T01:41:16;20.77;;;19.57;;
20505;SDS011;10411;48.148;7.704;2022-11-15T01:43:42;20.43;;;19.13;;
20505;SDS011;10411;48.148;7.704;2022-11-15T01:48:46;20.70;;;19.30;;
20505;SDS011;10411;48.148;7.704;2022-11-15T01:51:13;20.83;;;19.30;;
20505;SDS011;10411;48.148;7.704;2022-11-15T01:53:41;20.57;;;19.17;;
20505;SDS011;10411;48.148;7.704;2022-11-15T01:56:20;20.50;;;19.20;;
20505;SDS011;10411;48.148;7.704;2022-11-15T01:58:48;21.30;;;19.60;;
20505;SDS011;10411;48.148;7.704;2022-11-15T02:01:16;21.30;;;19.80;;
20505;SDS011;10411;48.148;7.704;2022-11-15T02:03:56;20.80;;;19.37;;
20505;SDS011;10411;48.148;7.704;2022-11-15T02:06:23;20.20;;;18.87;;
20505;SDS011;10411;48.148;7.704;2022-11-15T02:08:50;20.47;;;19.17;;
20505;SDS011;10411;48.148;7.704;2022-11-15T02:11:16;20.97;;;19.73;;
20505;SDS011;10411;48.148;7.704;2022-11-15T02:13:42;20.87;;;19.57;;
20505;SDS011;10411;48.148;7.704;2022-11-15T02:19:02;20.73;;;19.43;;
20505;SDS011;10411;48.148;7.704;2022-11-15T02:21:41;20.30;;;19.00;;
20505;SDS011;10411;48.148;7.704;2022-11-15T02:29:05;21.10;;;19.80;;
20505;SDS011;10411;48.148;7.704;2022-11-15T02:31:39;21.37;;;19.77;;
20505;SDS011;10411;48.148;7.704;2022-11-15T02:39:27;22.37;;;20.80;;
20505;SDS011;10411;48.148;7.704;2022-11-15T02:41:54;22.53;;;21.03;;
20505;SDS011;10411;48.148;7.704;2022-11-15T02:44:27;22.77;;;21.17;;
20505;SDS011;10411;48.148;7.704;2022-11-15T02:46:58;23.33;;;21.63;;
20505;SDS011;10411;48.148;7.704;2022-11-15T02:49:37;22.67;;;21.00;;
20505;SDS011;10411;48.148;7.704;2022-11-15T02:52:04;22.90;;;21.20;;
20505;SDS011;10411;48.148;7.704;2022-11-15T02:54:31;21.83;;;20.23;;
20505;SDS011;10411;48.148;7.704;2022-11-15T03:00:25;21.80;;;20.40;;
20505;SDS011;10411;48.148;7.704;2022-11-15T03:03:00;20.83;;;19.57;;
20505;SDS011;10411;48.148;7.704;2022-11-15T03:13:21;20.00;;;18.70;;
20505;SDS011;10411;48.148;7.704;2022-11-15T03:15:53;20.10;;;18.90;;
20505;SDS011;10411;48.148;7.704;2022-11-15T03:18:21;20.37;;;18.87;;
20505;SDS011;10411;48.148;7.704;2022-11-15T03:20:47;19.70;;;18.60;;
20505;SDS011;10411;48.148;7.704;2022-11-15T03:23:14;19.57;;;18.47;;
20505;SDS011;10411;48.148;7.704;2022-11-15T03:25:41;20.43;;;19.17;;
20505;SDS011;10411;48.148;7.704;2022-11-15T03:28:08;20.20;;;19.00;;
20505;SDS011;10411;48.148;7.704;2022-11-15T03:30:35;19.90;;;18.70;;
20505;SDS011;10411;48.148;7.704;2022-11-15T03:33:02;20.53;;;19.07;;
20505;SDS011;10411;48.148;7.704;2022-11-15T03:35:30;20.63;;;19.27;;
20505;SDS011;10411;48.148;7.704;2022-11-15T03:40:45;20.90;;;19.60;;
20505;SDS011;10411;48.148;7.704;2022-11-15T03:44:13;21.07;;;19.77;;
20505;SDS011;10411;48.148;7.704;2022-11-15T03:46:13;20.17;;;18.97;;
20505;SDS011;10411;48.148;7.704;2022-11-15T03:48:41;20.43;;;19.20;;
20505;SDS011;10411;48.148;7.704;2022-11-15T03:51:08;22.40;;;20.90;;
20505;SDS011;10411;48.148;7.704;2022-11-15T03:53:34;21.30;;;19.77;;
20505;SDS011;10411;48.148;7.704;2022-11-15T03:56:00;21.00;;;19.60;;
20505;SDS011;10411;48.148;7.704;2022-11-15T03:58:26;21.03;;;19.63;;
20505;SDS011;10411;48.148;7.704;2022-11-15T04:00:52;20.90;;;19.60;;
20505;SDS011;10411;48.148;7.704;2022-11-15T04:03:18;22.33;;;20.67;;
20505;SDS011;10411;48.148;7.704;2022-11-15T04:05:44;21.67;;;20.17;;
20505;SDS011;10411;48.148;7.704;2022-11-15T04:08:10;21.27;;;19.97;;
20505;SDS011;10411;48.148;7.704;2022-11-15T04:10:36;21.27;;;19.77;;
20505;SDS011;10411;48.148;7.704;2022-11-15T04:13:02;20.70;;;19.30;;
20505;SDS011;10411;48.148;7.704;2022-11-15T04:15:28;21.30;;;19.90;;
20505;SDS011;10411;48.148;7.704;2022-11-15T04:17:55;21.30;;;19.90;;
20505;SDS011;10411;48.148;7.704;2022-11-15T04:20:28;20.97;;;19.57;;
20505;SDS011;10411;48.148;7.704;2022-11-15T04:23:16;21.03;;;19.67;;
20505;SDS011;10411;48.148;7.704;2022-11-15T04:26:03;20.80;;;19.40;;
20505;SDS011;10411;48.148;7.704;2022-11-15T04:28:30;21.40;;;20.00;;
20505;SDS011;10411;48.148;7.704;2022-11-15T04:30:56;21.30;;;20.07;;
20505;SDS011;10411;48.148;7.704;2022-11-15T04:33:22;21.53;;;20.20;;
20505;SDS011;10411;48.148;7.704;2022-11-15T04:35:48;21.27;;;19.97;;
20505;SDS011;10411;48.148;7.704;2022-11-15T04:38:34;22.43;;;20.77;;
20505;SDS011;10411;48.148;7.704;2022-11-15T04:41:00;21.53;;;20.20;;
20505;SDS011;10411;48.148;7.704;2022-11-15T04:43:26;21.70;;;20.00;;
20505;SDS011;10411;48.148;7.704;2022-11-15T04:45:53;21.80;;;20.30;;
20505;SDS011;10411;48.148;7.704;2022-11-15T04:48:19;20.90;;;19.70;;
20505;SDS011;10411;48.148;7.704;2022-11-15T04:50:47;21.30;;;19.83;;
20505;SDS011;10411;48.148;7.704;2022-11-15T04:53:13;22.10;;;20.50;;
20505;SDS011;10411;48.148;7.704;2022-11-15T04:55:39;21.77;;;20.30;;
20505;SDS011;10411;48.148;7.704;2022-11-15T04:58:05;21.20;;;19.80;;
20505;SDS011;10411;48.148;7.704;2022-11-15T05:00:31;21.30;;;20.00;;
20505;SDS011;10411;48.148;7.704;2022-11-15T05:02:57;21.37;;;19.97;;
20505;SDS011;10411;48.148;7.704;2022-11-15T05:05:42;21.20;;;19.90;;
20505;SDS011;10411;48.148;7.704;2022-11-15T05:08:07;21.40;;;20.03;;
20505;SDS011;10411;48.148;7.704;2022-11-15T05:10:33;32.30;;;29.37;;
20505;SDS011;10411;48.148;7.704;2022-11-15T05:12:59;22.10;;;20.70;;
20505;SDS011;10411;48.148;7.704;2022-11-15T05:15:25;21.90;;;20.50;;
20505;SDS011;10411;48.148;7.704;2022-11-15T05:17:56;22.33;;;21.00;;
20505;SDS011;10411;48.148;7.704;2022-11-15T05:20:22;22.17;;;20.77;;
20505;SDS011;10411;48.148;7.704;2022-11-15T05:22:48;22.57;;;21.17;;
20505;SDS011;10411;48.148;7.704;2022-11-15T05:25:14;22.50;;;20.90;;
20505;SDS011;10411;48.148;7.704;2022-11-15T05:27:40;22.63;;;21.20;;
20505;SDS011;10411;48.148;7.704;2022-11-15T05:30:06;21.97;;;20.57;;
20505;SDS011;10411;48.148;7.704;2022-11-15T05:32:32;21.93;;;20.53;;
20505;SDS011;10411;48.148;7.704;2022-11-15T05:34:58;21.80;;;20.40;;
20505;SDS011;10411;48.148;7.704;2022-11-15T05:37:24;19.73;;;18.53;;
20505;SDS011;10411;48.148;7.704;2022-11-15T05:39:50;21.73;;;20.43;;
20505;SDS011;10411;48.148;7.704;2022-11-15T05:42:16;22.47;;;20.80;;
20505;SDS011;10411;48.148;7.704;2022-11-15T05:44:46;21.63;;;20.33;;
20505;SDS011;10411;48.148;7.704;2022-11-15T05:47:14;21.97;;;20.67;;
20505;SDS011;10411;48.148;7.704;2022-11-15T05:49:42;22.60;;;21.10;;
20505;SDS011;10411;48.148;7.704;2022-11-15T05:52:09;23.10;;;21.57;;
20505;SDS011;10411;48.148;7.704;2022-11-15T05:54:36;24.10;;;22.40;;
20505;SDS011;10411;48.148;7.704;2022-11-15T05:57:03;24.87;;;22.97;;
20505;SDS011;10411;48.148;7.704;2022-11-15T05:59:29;23.97;;;22.33;;
20505;SDS011;10411;48.148;7.704;2022-11-15T06:01:56;23.90;;;22.33;;
20505;SDS011;10411;48.148;7.704;2022-11-15T06:04:22;24.53;;;22.90;;
20505;SDS011;10411;48.148;7.704;2022-11-15T06:06:48;24.83;;;23.13;;
20505;SDS011;10411;48.148;7.704;2022-11-15T06:09:14;25.00;;;23.20;;
20505;SDS011;10411;48.148;7.704;2022-11-15T06:11:40;25.30;;;23.60;;
20505;SDS011;10411;48.148;7.704;2022-11-15T06:14:06;24.53;;;22.83;;
20505;SDS011;10411;48.148;7.704;2022-11-15T06:19:00;24.43;;;22.63;;
20505;SDS011;10411;48.148;7.704;2022-11-15T06:21:26;25.40;;;23.40;;
20505;SDS011;10411;48.148;7.704;2022-11-15T06:23:54;25.40;;;23.60;;
20505;SDS011;10411;48.148;7.704;2022-11-15T06:26:19;26.00;;;23.97;;
20505;SDS011;10411;48.148;7.704;2022-11-15T06:28:45;25.67;;;23.60;;
20505;SDS011;10411;48.148;7.704;2022-11-15T06:31:11;24.93;;;22.93;;
20505;SDS011;10411;48.148;7.704;2022-11-15T06:33:38;24.70;;;23.07;;
20505;SDS011;10411;48.148;7.704;2022-11-15T06:36:04;26.30;;;24.20;;
20505;SDS011;10411;48.148;7.704;2022-11-15T06:38:31;25.53;;;23.73;;
20505;SDS011;10411;48.148;7.704;2022-11-15T06:41:01;26.50;;;24.60;;
20505;SDS011;10411;48.148;7.704;2022-11-15T06:43:27;26.30;;;24.23;;
20505;SDS011;10411;48.148;7.704;2022-11-15T06:45:54;25.23;;;23.53;;
20505;SDS011;10411;48.148;7.704;2022-11-15T06:48:19;26.40;;;24.43;;
20505;SDS011;10411;48.148;7.704;2022-11-15T06:50:52;27.93;;;25.83;;
20505;SDS011;10411;48.148;7.704;2022-11-15T06:53:18;25.97;;;24.07;;
20505;SDS011;10411;48.148;7.704;2022-11-15T06:55:44;26.47;;;24.63;;
20505;SDS011;10411;48.148;7.704;2022-11-15T06:58:10;26.80;;;24.87;;
20505;SDS011;10411;48.148;7.704;2022-11-15T07:00:36;26.90;;;25.00;;
20505;SDS011;10411;48.148;7.704;2022-11-15T07:03:02;26.87;;;25.07;;
20505;SDS011;10411;48.148;7.704;2022-11-15T07:05:28;26.73;;;24.77;;
20505;SDS011;10411;48.148;7.704;2022-11-15T07:07:55;27.63;;;25.60;;
20505;SDS011;10411;48.148;7.704;2022-11-15T07:10:21;27.30;;;25.30;;
20505;SDS011;10411;48.148;7.704;2022-11-15T07:12:49;26.77;;;24.67;;
20505;SDS011;10411;48.148;7.704;2022-11-15T07:15:15;27.37;;;25.00;;
20505;SDS011;10411;48.148;7.704;2022-11-15T07:17:41;27.10;;;25.17;;
20505;SDS011;10411;48.148;7.704;2022-11-15T07:20:08;25.53;;;23.67;;
20505;SDS011;10411;48.148;7.704;2022-11-15T07:22:34;26.40;;;24.47;;
20505;SDS011;10411;48.148;7.704;2022-11-15T07:25:00;26.83;;;24.83;;
20505;SDS011;10411;48.148;7.704;2022-11-15T07:27:26;27.30;;;25.00;;
20505;SDS011;10411;48.148;7.704;2022-11-15T07:29:51;26.37;;;24.37;;
20505;SDS011;10411;48.148;7.704;2022-11-15T07:32:17;26.57;;;24.37;;
20505;SDS011;10411;48.148;7.704;2022-11-15T07:34:43;26.43;;;24.53;;
20505;SDS011;10411;48.148;7.704;2022-11-15T07:37:11;26.07;;;24.07;;
20505;SDS011;10411;48.148;7.704;2022-11-15T07:39:37;25.77;;;23.53;;
20505;SDS011;10411;48.148;7.704;2022-11-15T07:42:03;26.37;;;24.23;;
20505;SDS011;10411;48.148;7.704;2022-11-15T07:44:48;26.13;;;24.13;;
20505;SDS011;10411;48.148;7.704;2022-11-15T07:47:14;26.37;;;24.23;;
20505;SDS011;10411;48.148;7.704;2022-11-15T07:49:40;26.07;;;24.00;;
20505;SDS011;10411;48.148;7.704;2022-11-15T07:52:06;25.53;;;23.43;;
20505;SDS011;10411;48.148;7.704;2022-11-15T07:54:32;25.83;;;23.83;;
20505;SDS011;10411;48.148;7.704;2022-11-15T07:56:58;26.17;;;24.33;;
20505;SDS011;10411;48.148;7.704;2022-11-15T07:59:24;27.67;;;25.23;;
20505;SDS011;10411;48.148;7.704;2022-11-15T08:01:50;25.87;;;23.87;;
20505;SDS011;10411;48.148;7.704;2022-11-15T08:04:16;24.43;;;22.70;;
20505;SDS011;10411;48.148;7.704;2022-11-15T08:06:42;24.97;;;23.07;;
20505;SDS011;10411;48.148;7.704;2022-11-15T08:09:08;25.03;;;23.20;;
20505;SDS011;10411;48.148;7.704;2022-11-15T08:11:34;26.10;;;24.33;;
20505;SDS011;10411;48.148;7.704;2022-11-15T08:14:00;27.53;;;25.43;;
20505;SDS011;10411;48.148;7.704;2022-11-15T08:16:26;26.70;;;24.80;;
20505;SDS011;10411;48.148;7.704;2022-11-15T08:18:52;26.30;;;24.47;;
20505;SDS011;10411;48.148;7.704;2022-11-15T08:21:19;26.70;;;24.60;;
20505;SDS011;10411;48.148;7.704;2022-11-15T08:23:45;26.67;;;24.57;;
20505;SDS011;10411;48.148;7.704;2022-11-15T08:26:11;26.57;;;24.63;;
20505;SDS011;10411;48.148;7.704;2022-11-15T08:28:37;26.77;;;24.77;;
20505;SDS011;10411;48.148;7.704;2022-11-15T08:31:04;25.67;;;23.73;;
20505;SDS011;10411;48.148;7.704;2022-11-15T08:33:30;26.00;;;24.00;;
20505;SDS011;10411;48.148;7.704;2022-11-15T08:35:57;26.03;;;23.93;;
20505;SDS011;10411;48.148;7.704;2022-11-15T08:38:23;24.00;;;22.40;;
20505;SDS011;10411;48.148;7.704;2022-11-15T08:40:52;24.40;;;22.60;;
20505;SDS011;10411;48.148;7.704;2022-11-15T08:43:18;24.00;;;22.20;;
20505;SDS011;10411;48.148;7.704;2022-11-15T08:45:44;25.23;;;23.13;;
20505;SDS011;10411;48.148;7.704;2022-11-15T08:48:10;27.77;;;25.40;;
20505;SDS011;10411;48.148;7.704;2022-11-15T08:50:36;26.50;;;24.50;;
20505;SDS011;10411;48.148;7.704;2022-11-15T08:53:08;26.83;;;24.77;;
20505;SDS011;10411;48.148;7.704;2022-11-15T08:55:36;24.90;;;23.10;;
20505;SDS011;10411;48.148;7.704;2022-11-15T08:58:02;25.50;;;23.53;;
20505;SDS011;10411;48.148;7.704;2022-11-15T09:00:28;24.70;;;22.93;;
20505;SDS011;10411;48.148;7.704;2022-11-15T09:02:54;27.27;;;25.10;;
20505;SDS011;10411;48.148;7.704;2022-11-15T09:05:21;28.63;;;25.93;;
20505;SDS011;10411;48.148;7.704;2022-11-15T09:07:47;25.83;;;23.83;;
20505;SDS011;10411;48.148;7.704;2022-11-15T09:10:13;26.63;;;24.80;;
20505;SDS011;10411;48.148;7.704;2022-11-15T09:12:38;24.00;;;22.40;;
20505;SDS011;10411;48.148;7.704;2022-11-15T09:15:05;23.63;;;21.90;;
20505;SDS011;10411;48.148;7.704;2022-11-15T09:17:31;22.87;;;21.47;;
20505;SDS011;10411;48.148;7.704;2022-11-15T09:19:57;23.30;;;21.80;;
20505;SDS011;10411;48.148;7.704;2022-11-15T09:22:23;23.57;;;22.07;;
20505;SDS011;10411;48.148;7.704;2022-11-15T09:24:49;23.10;;;21.60;;
20505;SDS011;10411;48.148;7.704;2022-11-15T09:27:15;23.30;;;21.90;;
20505;SDS011;10411;48.148;7.704;2022-11-15T09:29:41;22.77;;;21.37;;
20505;SDS011;10411;48.148;7.704;2022-11-15T09:32:07;23.40;;;21.73;;
20505;SDS011;10411;48.148;7.704;2022-11-15T09:34:33;23.13;;;21.73;;
20505;SDS011;10411;48.148;7.704;2022-11-15T09:36:59;23.47;;;21.80;;
20505;SDS011;10411;48.148;7.704;2022-11-15T09:39:25;22.80;;;21.23;;
20505;SDS011;10411;48.148;7.704;2022-11-15T09:41:55;24.73;;;22.90;;
20505;SDS011;10411;48.148;7.704;2022-11-15T09:49:33;25.17;;;23.43;;
20505;SDS011;10411;48.148;7.704;2022-11-15T09:51:59;26.63;;;24.63;;
20505;SDS011;10411;48.148;7.704;2022-11-15T09:54:30;25.70;;;23.67;;
20505;SDS011;10411;48.148;7.704;2022-11-15T09:57:11;26.07;;;24.27;;
20505;SDS011;10411;48.148;7.704;2022-11-15T10:04:44;25.97;;;24.17;;
20505;SDS011;10411;48.148;7.704;2022-11-15T10:07:13;26.40;;;24.50;;
20505;SDS011;10411;48.148;7.704;2022-11-15T10:09:45;26.43;;;24.53;;
20505;SDS011;10411;48.148;7.704;2022-11-15T10:12:13;26.13;;;24.20;;
20505;SDS011;10411;48.148;7.704;2022-11-15T10:14:39;25.90;;;24.20;;
20505;SDS011;10411;48.148;7.704;2022-11-15T10:24:49;25.80;;;23.67;;
20505;SDS011;10411;48.148;7.704;2022-11-15T10:27:17;25.93;;;24.00;;
20505;SDS011;10411;48.148;7.704;2022-11-15T10:29:44;25.63;;;23.80;;
20505;SDS011;10411;48.148;7.704;2022-11-15T10:32:11;26.23;;;24.33;;
20505;SDS011;10411;48.148;7.704;2022-11-15T10:34:37;25.37;;;23.57;;
20505;SDS011;10411;48.148;7.704;2022-11-15T10:37:03;26.27;;;24.37;;
20505;SDS011;10411;48.148;7.704;2022-11-15T10:39:29;26.60;;;24.50;;
20505;SDS011;10411;48.148;7.704;2022-11-15T10:41:55;25.13;;;23.33;;
20505;SDS011;10411;48.148;7.704;2022-11-15T10:44:30;24.80;;;23.10;;
20505;SDS011;10411;48.148;7.704;2022-11-15T10:49:27;24.27;;;22.67;;
20505;SDS011;10411;48.148;7.704;2022-11-15T10:56:49;24.40;;;22.80;;
20505;SDS011;10411;48.148;7.704;2022-11-15T10:59:17;24.30;;;22.50;;
20505;SDS011;10411;48.148;7.704;2022-11-15T11:15:36;24.03;;;22.30;;
20505;SDS011;10411;48.148;7.704;2022-11-15T11:20:59;23.57;;;22.07;;
20505;SDS011;10411;48.148;7.704;2022-11-15T11:23:36;24.80;;;22.93;;
20505;SDS011;10411;48.148;7.704;2022-11-15T11:33:50;24.57;;;22.87;;
20505;SDS011;10411;48.148;7.704;2022-11-15T11:49:10;28.10;;;25.90;;
20505;SDS011;10411;48.148;7.704;2022-11-15T11:51:41;26.47;;;24.60;;
20505;SDS011;10411;48.148;7.704;2022-11-15T11:54:17;27.03;;;25.13;;
20505;SDS011;10411;48.148;7.704;2022-11-15T11:56:45;26.77;;;24.77;;
20505;SDS011;10411;48.148;7.704;2022-11-15T12:01:56;26.03;;;24.07;;
20505;SDS011;10411;48.148;7.704;2022-11-15T12:04:42;26.20;;;24.30;;
20505;SDS011;10411;48.148;7.704;2022-11-15T12:09:55;27.57;;;25.57;;
20505;SDS011;10411;48.148;7.704;2022-11-15T12:15:11;26.60;;;24.70;;
20505;SDS011;10411;48.148;7.704;2022-11-15T12:17:39;27.77;;;25.60;;
20505;SDS011;10411;48.148;7.704;2022-11-15T12:20:13;27.17;;;25.17;;
20505;SDS011;10411;48.148;7.704;2022-11-15T12:27:52;24.97;;;23.17;;
20505;SDS011;10411;48.148;7.704;2022-11-15T12:30:19;26.67;;;24.57;;
20505;SDS011;10411;48.148;7.704;2022-11-15T12:32:54;27.83;;;25.40;;
20505;SDS011;10411;48.148;7.704;2022-11-15T12:35:34;27.23;;;25.13;;
20505;SDS011;10411;48.148;7.704;2022-11-15T12:38:00;25.67;;;23.87;;
20505;SDS011;10411;48.148;7.704;2022-11-15T12:40:27;26.37;;;24.37;;
20505;SDS011;10411;48.148;7.704;2022-11-15T12:45:44;25.20;;;23.10;;
20505;SDS011;10411;48.148;7.704;2022-11-15T12:53:28;26.07;;;24.07;;
20505;SDS011;10411;48.148;7.704;2022-11-15T12:58:27;24.97;;;23.27;;
20505;SDS011;10411;48.148;7.704;2022-11-15T13:00:54;27.17;;;25.20;;
20505;SDS011;10411;48.148;7.704;2022-11-15T13:03:21;26.87;;;24.87;;
20505;SDS011;10411;48.148;7.704;2022-11-15T13:05:53;27.70;;;24.97;;
20505;SDS011;10411;48.148;7.704;2022-11-15T13:08:37;26.50;;;24.60;;
20505;SDS011;10411;48.148;7.704;2022-11-15T13:13:47;25.97;;;24.17;;
20505;SDS011;10411;48.148;7.704;2022-11-15T13:16:17;25.10;;;23.10;;
20505;SDS011;10411;48.148;7.704;2022-11-15T13:18:53;24.90;;;23.10;;
20505;SDS011;10411;48.148;7.704;2022-11-15T13:21:23;24.00;;;22.40;;
20505;SDS011;10411;48.148;7.704;2022-11-15T13:24:16;24.33;;;22.63;;
20505;SDS011;10411;48.148;7.704;2022-11-15T13:26:42;23.80;;;22.23;;
20505;SDS011;10411;48.148;7.704;2022-11-15T13:29:15;24.43;;;22.73;;
20505;SDS011;10411;48.148;7.704;2022-11-15T13:31:42;24.23;;;22.60;;
20505;SDS011;10411;48.148;7.704;2022-11-15T13:36:50;25.63;;;23.53;;
20505;SDS011;10411;48.148;7.704;2022-11-15T13:39:32;24.73;;;22.67;;
20505;SDS011;10411;48.148;7.704;2022-11-15T13:41:59;26.03;;;23.83;;
20505;SDS011;10411;48.148;7.704;2022-11-15T13:44:29;24.80;;;23.13;;
20505;SDS011;10411;48.148;7.704;2022-11-15T13:47:15;25.13;;;23.33;;
20505;SDS011;10411;48.148;7.704;2022-11-15T14:00:05;26.90;;;24.70;;
20505;SDS011;10411;48.148;7.704;2022-11-15T14:02:35;26.23;;;24.13;;
20505;SDS011;10411;48.148;7.704;2022-11-15T14:05:15;26.90;;;24.70;;
20505;SDS011;10411;48.148;7.704;2022-11-15T14:07:52;27.47;;;25.17;;
20505;SDS011;10411;48.148;7.704;2022-11-15T14:10:36;27.50;;;25.17;;
20505;SDS011;10411;48.148;7.704;2022-11-15T14:13:03;29.23;;;26.63;;
20505;SDS011;10411;48.148;7.704;2022-11-15T14:15:31;28.33;;;26.00;;
20505;SDS011;10411;48.148;7.704;2022-11-15T14:17:57;27.80;;;25.20;;
20505;SDS011;10411;48.148;7.704;2022-11-15T14:20:27;26.23;;;24.13;;
20505;SDS011;10411;48.148;7.704;2022-11-15T14:22:56;25.67;;;23.67;;
20505;SDS011;10411;48.148;7.704;2022-11-15T14:25:26;28.67;;;25.97;;
20505;SDS011;10411;48.148;7.704;2022-11-15T14:30:40;30.83;;;27.90;;
20505;SDS011;10411;48.148;7.704;2022-11-15T14:33:20;30.40;;;27.63;;
20505;SDS011;10411;48.148;7.704;2022-11-15T14:35:46;31.33;;;28.53;;
20505;SDS011;10411;48.148;7.704;2022-11-15T14:38:12;31.33;;;28.33;;
20505;SDS011;10411;48.148;7.704;2022-11-15T14:40:39;33.17;;;30.23;;
20505;SDS011;10411;48.148;7.704;2022-11-15T14:43:07;31.80;;;29.20;;
20505;SDS011;10411;48.148;7.704;2022-11-15T14:45:34;30.47;;;27.83;;
20505;SDS011;10411;48.148;7.704;2022-11-15T14:48:00;29.53;;;27.13;;
20505;SDS011;10411;48.148;7.704;2022-11-15T14:50:26;28.97;;;26.20;;
20505;SDS011;10411;48.148;7.704;2022-11-15T14:52:52;27.80;;;25.50;;
20505;SDS011;10411;48.148;7.704;2022-11-15T14:55:20;27.83;;;25.53;;
20505;SDS011;10411;48.148;7.704;2022-11-15T14:57:46;29.10;;;25.23;;
20505;SDS011;10411;48.148;7.704;2022-11-15T15:00:13;27.27;;;25.03;;
20505;SDS011;10411;48.148;7.704;2022-11-15T15:02:39;28.47;;;26.30;;
20505;SDS011;10411;48.148;7.704;2022-11-15T15:07:44;33.50;;;30.13;;
20505;SDS011;10411;48.148;7.704;2022-11-15T15:10:10;29.03;;;26.83;;
20505;SDS011;10411;48.148;7.704;2022-11-15T15:12:37;28.87;;;26.47;;
20505;SDS011;10411;48.148;7.704;2022-11-15T15:15:04;29.23;;;26.83;;
20505;SDS011;10411;48.148;7.704;2022-11-15T15:17:30;29.67;;;27.20;;
20505;SDS011;10411;48.148;7.704;2022-11-15T15:19:56;31.13;;;27.90;;
20505;SDS011;10411;48.148;7.704;2022-11-15T15:22:22;31.13;;;28.00;;
20505;SDS011;10411;48.148;7.704;2022-11-15T15:24:50;30.10;;;27.47;;
20505;SDS011;10411;48.148;7.704;2022-11-15T15:27:16;31.73;;;29.13;;
20505;SDS011;10411;48.148;7.704;2022-11-15T15:29:42;29.10;;;26.40;;
20505;SDS011;10411;48.148;7.704;2022-11-15T15:32:08;27.73;;;25.20;;
20505;SDS011;10411;48.148;7.704;2022-11-15T15:34:34;28.30;;;25.97;;
20505;SDS011;10411;48.148;7.704;2022-11-15T15:37:33;27.97;;;25.87;;
20505;SDS011;10411;48.148;7.704;2022-11-15T15:39:53;27.60;;;25.30;;
20505;SDS011;10411;48.148;7.704;2022-11-15T15:42:20;31.63;;;28.87;;
20505;SDS011;10411;48.148;7.704;2022-11-15T15:44:47;31.27;;;28.43;;
20505;SDS011;10411;48.148;7.704;2022-11-15T15:47:13;30.33;;;27.63;;
20505;SDS011;10411;48.148;7.704;2022-11-15T15:49:41;29.10;;;26.73;;
20505;SDS011;10411;48.148;7.704;2022-11-15T15:52:06;28.37;;;26.17;;
20505;SDS011;10411;48.148;7.704;2022-11-15T15:54:32;27.80;;;25.20;;
20505;SDS011;10411;48.148;7.704;2022-11-15T15:56:58;27.43;;;25.07;;
20505;SDS011;10411;48.148;7.704;2022-11-15T15:59:24;28.80;;;26.40;;
20505;SDS011;10411;48.148;7.704;2022-11-15T16:01:50;27.40;;;25.10;;
20505;SDS011;10411;48.148;7.704;2022-11-15T16:04:16;29.37;;;26.47;;
20505;SDS011;10411;48.148;7.704;2022-11-15T16:06:42;27.77;;;25.37;;
20505;SDS011;10411;48.148;7.704;2022-11-15T16:09:12;26.57;;;24.30;;
20505;SDS011;10411;48.148;7.704;2022-11-15T16:11:38;26.47;;;24.43;;
20505;SDS011;10411;48.148;7.704;2022-11-15T16:14:05;26.97;;;24.73;;
20505;SDS011;10411;48.148;7.704;2022-11-15T16:16:30;26.47;;;24.27;;
20505;SDS011;10411;48.148;7.704;2022-11-15T16:18:56;27.20;;;24.87;;
20505;SDS011;10411;48.148;7.704;2022-11-15T16:21:22;27.07;;;24.57;;
20505;SDS011;10411;48.148;7.704;2022-11-15T16:23:48;27.50;;;25.30;;
20505;SDS011;10411;48.148;7.704;2022-11-15T16:26:18;28.00;;;25.40;;
20505;SDS011;10411;48.148;7.704;2022-11-15T16:28:46;27.70;;;25.40;;
20505;SDS011;10411;48.148;7.704;2022-11-15T16:31:12;28.53;;;26.13;;
20505;SDS011;10411;48.148;7.704;2022-11-15T16:33:38;28.63;;;26.07;;
20505;SDS011;10411;48.148;7.704;2022-11-15T16:36:05;28.07;;;25.97;;
20505;SDS011;10411;48.148;7.704;2022-11-15T16:38:31;30.47;;;28.17;;
20505;SDS011;10411;48.148;7.704;2022-11-15T16:40:58;31.77;;;28.87;;
20505;SDS011;10411;48.148;7.704;2022-11-15T16:43:24;34.37;;;31.20;;
20505;SDS011;10411;48.148;7.704;2022-11-15T16:45:50;46.37;;;41.23;;